Terminal Aerodrome Forecast
Issued by NWS Corpus Christi, TX

Home | Current Version | Previous Version | Text Only | Print | Product List | Glossary On
Versions: 1 2 3 4 5 6 7 8 9 10 11 12 13 14 15 16 17 18 19 20 21
000
FTUS44 KCRP 251741
TAFCRP
TAF
KCRP 251741Z 2518/2618 09010KT P6SM VCTS SCT035CB BKN060 OVC150
      TEMPO 2519/2523 5SM TSRA OVC025CB
     FM260000 09012G18KT P6SM SCT040 BKN150
     FM260300 10008KT P6SM SCT020 BKN250 PROB30 2606/2610 5SM -SHRA
      BKN020
     FM261000 06004KT P6SM VCTS BKN020CB
     FM261500 09010KT P6SM VCTS SCT020 BKN035CB=

USA.gov is the U.S. government's official web portal to all federal, state and local government web resources and services.